createdAt,value
2023-02-17T00:00:10.057Z,1021.15
2023-02-17T00:01:10.295Z,1021.14
2023-02-17T00:02:10.446Z,1021.16
2023-02-17T00:03:10.592Z,1021.12
2023-02-17T00:04:10.789Z,1021.07
2023-02-17T00:05:10.944Z,1021.09
2023-02-17T00:06:11.113Z,1021.04
2023-02-17T00:07:11.284Z,1021.02
2023-02-17T00:08:11.474Z,1020.99
2023-02-17T00:09:11.681Z,1020.99
2023-02-17T00:10:11.836Z,1020.96
2023-02-17T00:11:12.057Z,1020.95
2023-02-17T00:12:12.176Z,1021.01
2023-02-17T00:13:12.381Z,1020.94
2023-02-17T00:14:12.573Z,1020.93
2023-02-17T00:15:12.726Z,1020.92
2023-02-17T00:16:12.941Z,1020.94
2023-02-17T00:17:13.081Z,1020.92
2023-02-17T00:18:13.272Z,1020.91
2023-02-17T00:19:13.463Z,1020.92
2023-02-17T00:20:13.627Z,1020.90
2023-02-17T00:21:13.815Z,1020.89
2023-02-17T00:22:14.002Z,1020.85
2023-02-17T00:23:14.197Z,1020.86
2023-02-17T00:24:14.369Z,1020.86
2023-02-17T00:25:14.532Z,1020.83
2023-02-17T00:26:14.705Z,1020.85
2023-02-17T00:27:14.876Z,1020.82
2023-02-17T00:28:15.030Z,1020.87
2023-02-17T00:29:15.232Z,1020.80
2023-02-17T00:30:15.418Z,1020.77
2023-02-17T00:31:15.634Z,1020.79
2023-02-17T00:32:15.721Z,1020.82
2023-02-17T00:33:15.908Z,1020.81
2023-02-17T00:34:16.085Z,1020.86
2023-02-17T00:35:16.240Z,1020.86
2023-02-17T00:36:16.425Z,1020.81
2023-02-17T00:37:16.614Z,1020.83
2023-02-17T00:38:16.798Z,1020.83
2023-02-17T00:39:17.003Z,1020.87
2023-02-17T00:40:17.164Z,1020.87
2023-02-17T00:41:17.318Z,1020.82
2023-02-17T00:42:17.477Z,1020.85
2023-02-17T00:43:17.666Z,1020.79
2023-02-17T00:44:17.861Z,1020.78
2023-02-17T00:45:18.019Z,1020.71
2023-02-17T00:46:18.247Z,1020.74
2023-02-17T00:47:18.391Z,1020.73
2023-02-17T00:48:18.552Z,1020.73
2023-02-17T00:49:18.737Z,1020.75
2023-02-17T00:50:18.860Z,1020.73
2023-02-17T00:51:19.041Z,1020.67
2023-02-17T00:52:19.218Z,1020.70
2023-02-17T00:53:19.431Z,1020.68
2023-02-17T00:54:19.588Z,1020.68
2023-02-17T00:55:19.748Z,1020.68
2023-02-17T00:56:19.932Z,1020.65
2023-02-17T00:57:20.121Z,1020.62
2023-02-17T00:58:20.307Z,1020.59
2023-02-17T00:59:20.499Z,1020.59
2023-02-17T01:00:20.648Z,1020.57
2023-02-17T01:01:20.885Z,1020.58
2023-02-17T01:02:21.028Z,1020.50
2023-02-17T01:03:21.209Z,1020.52
2023-02-17T01:04:21.411Z,1020.44
2023-02-17T01:05:21.561Z,1020.40
2023-02-17T01:06:21.747Z,1020.43
2023-02-17T01:07:21.943Z,1020.40
2023-02-17T01:08:22.123Z,1020.44
2023-02-17T01:09:22.319Z,1020.44
2023-02-17T01:10:22.469Z,1020.41
2023-02-17T01:11:22.671Z,1020.42
2023-02-17T01:12:22.849Z,1020.41
2023-02-17T01:13:23.040Z,1020.43
2023-02-17T01:14:23.242Z,1020.43
2023-02-17T01:15:23.412Z,1020.40
2023-02-17T01:16:23.602Z,1020.38
2023-02-17T01:17:23.763Z,1020.34
2023-02-17T01:18:23.908Z,1020.34
2023-02-17T01:19:24.122Z,1020.35
2023-02-17T01:20:24.270Z,1020.31
2023-02-17T01:21:24.462Z,1020.28
2023-02-17T01:22:24.649Z,1020.20
2023-02-17T01:23:24.850Z,1020.17
2023-02-17T01:24:25.011Z,1020.18
2023-02-17T01:25:25.176Z,1020.13
2023-02-17T01:26:25.351Z,1020.11
2023-02-17T01:27:25.522Z,1020.04
2023-02-17T01:28:25.718Z,1020.05
2023-02-17T01:29:25.904Z,1020.09
2023-02-17T01:30:26.061Z,1020.10
2023-02-17T01:31:26.231Z,1020.08
2023-02-17T01:32:26.389Z,1020.07
2023-02-17T01:33:26.547Z,1020.06
2023-02-17T01:34:26.762Z,1020.07
2023-02-17T01:35:26.909Z,1020.06
2023-02-17T01:36:27.066Z,1020.09
2023-02-17T01:37:27.248Z,1020.08
2023-02-17T01:38:27.446Z,1020.07
2023-02-17T01:39:27.619Z,1020.01
2023-02-17T01:40:27.765Z,1019.98
2023-02-17T01:41:27.952Z,1019.94
2023-02-17T01:42:28.125Z,1019.95
2023-02-17T01:43:28.276Z,1019.93
2023-02-17T01:44:28.486Z,1019.94
2023-02-17T01:45:28.654Z,1019.95
2023-02-17T01:46:28.849Z,1019.93
2023-02-17T01:47:28.986Z,1019.91
2023-02-17T01:48:29.176Z,1019.89
2023-02-17T01:49:29.377Z,1019.87
2023-02-17T01:50:29.533Z,1019.86
2023-02-17T01:51:29.698Z,1019.87
2023-02-17T01:52:29.883Z,1019.86
2023-02-17T01:53:30.072Z,1019.82
2023-02-17T01:54:30.273Z,1019.81
2023-02-17T01:55:30.433Z,1019.84
2023-02-17T01:56:30.621Z,1019.80
2023-02-17T01:57:30.811Z,1019.79
2023-02-17T01:58:31.003Z,1019.77
2023-02-17T01:59:31.178Z,1019.76
2023-02-17T02:00:31.330Z,1019.75
2023-02-17T02:01:31.604Z,1019.73
2023-02-17T02:02:31.725Z,1019.70
2023-02-17T02:03:31.821Z,1019.69
2023-02-17T02:04:32.042Z,1019.69
2023-02-17T02:05:32.194Z,1019.69
2023-02-17T02:06:32.383Z,1019.69
2023-02-17T02:07:32.560Z,1019.65
2023-02-17T02:08:32.750Z,1019.67
2023-02-17T02:09:32.951Z,1019.68
2023-02-17T02:10:33.110Z,1019.65
2023-02-17T02:11:33.302Z,1019.63
2023-02-17T02:12:33.459Z,1019.64
2023-02-17T02:13:33.656Z,1019.62
2023-02-17T02:14:33.854Z,1019.59
2023-02-17T02:15:34.004Z,1019.52
2023-02-17T02:16:34.216Z,1019.49
2023-02-17T02:17:34.383Z,1019.47
2023-02-17T02:18:34.575Z,1019.48
2023-02-17T02:19:34.777Z,1019.45
2023-02-17T02:20:34.925Z,1019.42
2023-02-17T02:21:35.104Z,1019.45
2023-02-17T02:22:35.296Z,1019.41
2023-02-17T02:23:35.487Z,1019.36
2023-02-17T02:24:35.688Z,1019.35
2023-02-17T02:25:35.839Z,1019.34
2023-02-17T02:26:36.029Z,1019.34
2023-02-17T02:27:36.215Z,1019.26
2023-02-17T02:28:36.404Z,1019.25
2023-02-17T02:29:36.574Z,1019.20
2023-02-17T02:30:36.726Z,1019.21
2023-02-17T02:31:36.958Z,1019.26
2023-02-17T02:32:37.098Z,1019.21
2023-02-17T02:33:37.245Z,1019.18
2023-02-17T02:34:37.447Z,1019.21
2023-02-17T02:35:37.603Z,1019.18
2023-02-17T02:36:37.785Z,1019.20
2023-02-17T02:37:38.070Z,1019.15
2023-02-17T02:38:38.168Z,1019.20
2023-02-17T02:39:38.357Z,1019.18
2023-02-17T02:40:38.513Z,1019.17
2023-02-17T02:41:38.686Z,1019.19
2023-02-17T02:42:38.883Z,1019.17
2023-02-17T02:43:39.040Z,1019.12
2023-02-17T02:44:39.238Z,1019.11
2023-02-17T02:45:39.465Z,1019.08
2023-02-17T02:46:39.570Z,1019.12
2023-02-17T02:47:39.752Z,1019.14
2023-02-17T02:48:39.908Z,1019.11
2023-02-17T02:49:40.105Z,1019.11
2023-02-17T02:50:40.255Z,1019.07
2023-02-17T02:51:40.442Z,1019.03
2023-02-17T02:52:40.625Z,1019.00
2023-02-17T02:53:40.820Z,1019.04
2023-02-17T02:54:41.018Z,1019.00
2023-02-17T02:55:41.166Z,1018.94
2023-02-17T02:56:41.374Z,1018.91
2023-02-17T02:57:41.515Z,1018.94
2023-02-17T02:58:41.706Z,1019.00
2023-02-17T02:59:41.874Z,1018.99
2023-02-17T03:00:42.064Z,1018.93
2023-02-17T03:01:42.186Z,1018.93
2023-02-17T03:02:42.385Z,1018.88
2023-02-17T03:03:42.642Z,1018.83
2023-02-17T03:04:42.753Z,1018.80
2023-02-17T03:05:42.905Z,1018.79
2023-02-17T03:06:43.086Z,1018.79
2023-02-17T03:07:43.276Z,1018.78
2023-02-17T03:08:43.490Z,1018.72
2023-02-17T03:09:43.633Z,1018.71
2023-02-17T03:10:43.826Z,1018.69
2023-02-17T03:11:44.005Z,1018.69
2023-02-17T03:12:44.196Z,1018.70
2023-02-17T03:13:44.407Z,1018.67
2023-02-17T03:14:44.566Z,1018.69
2023-02-17T03:15:44.729Z,1018.69
2023-02-17T03:16:44.919Z,1018.62
2023-02-17T03:17:45.094Z,1018.62
2023-02-17T03:18:45.285Z,1018.55
2023-02-17T03:19:45.559Z,1018.57
2023-02-17T03:20:45.664Z,1018.55
2023-02-17T03:21:45.817Z,1018.54
2023-02-17T03:22:46.004Z,1018.49
2023-02-17T03:23:46.160Z,1018.53
2023-02-17T03:24:46.362Z,1018.54
2023-02-17T03:25:46.524Z,1018.49
2023-02-17T03:26:46.721Z,1018.52
2023-02-17T03:27:46.864Z,1018.57
2023-02-17T03:28:47.066Z,1018.55
2023-02-17T03:29:47.228Z,1018.59
2023-02-17T03:30:47.384Z,1018.59
2023-02-17T03:31:47.714Z,1018.60
2023-02-17T03:32:47.733Z,1018.60
2023-02-17T03:33:47.925Z,1018.67
2023-02-17T03:34:48.134Z,1018.71
2023-02-17T03:35:48.282Z,1018.68
2023-02-17T03:36:48.472Z,1018.63
2023-02-17T03:37:48.643Z,1018.65
2023-02-17T03:38:48.834Z,1018.61
2023-02-17T03:39:49.033Z,1018.62
2023-02-17T03:40:49.192Z,1018.63
2023-02-17T03:41:49.374Z,1018.67
2023-02-17T03:42:49.584Z,1018.65
2023-02-17T03:43:49.749Z,1018.64
2023-02-17T03:44:49.954Z,1018.66
2023-02-17T03:45:50.115Z,1018.61
2023-02-17T03:46:50.293Z,1018.63
2023-02-17T03:47:50.474Z,1018.60
2023-02-17T03:48:50.663Z,1018.54
2023-02-17T03:49:50.941Z,1018.55
2023-02-17T03:50:51.043Z,1018.53
2023-02-17T03:51:51.204Z,1018.51
2023-02-17T03:52:51.394Z,1018.49
2023-02-17T03:53:51.545Z,1018.48
2023-02-17T03:54:51.759Z,1018.44
2023-02-17T03:55:51.911Z,1018.47
2023-02-17T03:56:52.104Z,1018.45
2023-02-17T03:57:52.262Z,1018.43
2023-02-17T03:58:52.418Z,1018.43
2023-02-17T03:59:52.617Z,1018.45
2023-02-17T04:00:52.771Z,1018.42
2023-02-17T04:01:52.957Z,1018.44
2023-02-17T04:02:53.140Z,1018.45
2023-02-17T04:03:53.428Z,1018.45
2023-02-17T04:04:53.539Z,1018.44
2023-02-17T04:05:53.690Z,1018.43
2023-02-17T04:06:53.878Z,1018.42
2023-02-17T04:07:54.073Z,1018.42
2023-02-17T04:08:54.267Z,1018.41
2023-02-17T04:09:54.430Z,1018.35
2023-02-17T04:10:54.587Z,1018.36
2023-02-17T04:11:54.774Z,1018.37
2023-02-17T04:12:54.960Z,1018.33
2023-02-17T04:13:55.150Z,1018.30
2023-02-17T04:14:55.358Z,1018.29
2023-02-17T04:15:55.581Z,1018.36
2023-02-17T04:16:55.688Z,1018.33
2023-02-17T04:17:55.847Z,1018.35
2023-02-17T04:18:56.010Z,1018.29
2023-02-17T04:19:56.178Z,1018.33
2023-02-17T04:20:56.334Z,1018.27
2023-02-17T04:21:56.518Z,1018.22
2023-02-17T04:22:56.710Z,1018.23
2023-02-17T04:23:56.893Z,1018.27
2023-02-17T04:24:57.108Z,1018.20
2023-02-17T04:25:57.276Z,1018.24
2023-02-17T04:26:57.428Z,1018.23
2023-02-17T04:27:57.609Z,1018.18
2023-02-17T04:28:57.797Z,1018.14
2023-02-17T04:29:58.002Z,1018.12
2023-02-17T04:30:58.199Z,1018.18
2023-02-17T04:31:58.412Z,1018.16
2023-02-17T04:32:58.485Z,1018.14
2023-02-17T04:33:58.635Z,1018.15
2023-02-17T04:34:58.861Z,1018.12
2023-02-17T04:35:59.007Z,1018.10
2023-02-17T04:36:59.198Z,1018.04
2023-02-17T04:37:59.403Z,1018.04
2023-02-17T04:38:59.576Z,1018.06
2023-02-17T04:39:59.776Z,1018.00
2023-02-17T04:40:59.944Z,1018.00
2023-02-17T04:42:00.124Z,1018.10
2023-02-17T04:43:00.277Z,1018.11
2023-02-17T04:44:00.463Z,1018.12
2023-02-17T04:45:00.677Z,1018.13
2023-02-17T04:46:00.865Z,1018.17
2023-02-17T04:47:01.014Z,1018.11
2023-02-17T04:48:01.198Z,1018.10
2023-02-17T04:49:01.401Z,1018.11
2023-02-17T04:50:01.585Z,1018.11
2023-02-17T04:51:01.755Z,1018.04
2023-02-17T04:52:01.909Z,1017.98
2023-02-17T04:53:02.094Z,1018.00
2023-02-17T04:54:02.248Z,1017.96
2023-02-17T04:55:02.454Z,1018.03
2023-02-17T04:56:02.604Z,1018.00
2023-02-17T04:57:02.804Z,1018.00
2023-02-17T04:58:02.956Z,1017.97
2023-02-17T04:59:03.145Z,1017.96
2023-02-17T05:00:03.351Z,1017.97
2023-02-17T05:01:03.505Z,1017.96
2023-02-17T05:02:03.681Z,1017.91
2023-02-17T05:03:03.858Z,1017.91
2023-02-17T05:04:04.005Z,1017.95
2023-02-17T05:05:04.280Z,1017.95
2023-02-17T05:06:04.590Z,1017.93
2023-02-17T05:07:04.508Z,1017.94
2023-02-17T05:08:04.693Z,1017.90
2023-02-17T05:09:04.891Z,1017.93
2023-02-17T05:10:05.054Z,1017.90
2023-02-17T05:11:05.216Z,1017.87
2023-02-17T05:12:05.364Z,1017.90
2023-02-17T05:13:05.583Z,1017.85
2023-02-17T05:14:05.724Z,1017.83
2023-02-17T05:15:05.934Z,1017.79
2023-02-17T05:16:06.405Z,1017.80
2023-02-17T05:17:06.272Z,1017.87
2023-02-17T05:18:06.446Z,1017.79
2023-02-17T05:19:06.594Z,1017.86
2023-02-17T05:20:06.773Z,1017.81
2023-02-17T05:21:06.927Z,1017.78
2023-02-17T05:22:07.084Z,1017.78
2023-02-17T05:23:07.275Z,1017.74
2023-02-17T05:24:07.470Z,1017.74
2023-02-17T05:25:07.674Z,1017.72
2023-02-17T05:26:08.095Z,1017.71
2023-02-17T05:27:08.002Z,1017.74
2023-02-17T05:28:08.204Z,1017.65
2023-02-17T05:29:08.365Z,1017.66
2023-02-17T05:30:08.629Z,1017.63
2023-02-17T05:31:08.798Z,1017.67
2023-02-17T05:32:08.994Z,1017.57
2023-02-17T05:33:09.085Z,1017.51
2023-02-17T05:34:09.234Z,1017.45
2023-02-17T05:35:09.442Z,1017.48
2023-02-17T05:36:09.591Z,1017.46
2023-02-17T05:37:09.784Z,1017.47
2023-02-17T05:38:09.934Z,1017.50
2023-02-17T05:39:10.124Z,1017.48
2023-02-17T05:40:10.324Z,1017.50
2023-02-17T05:41:10.476Z,1017.48
2023-02-17T05:42:10.665Z,1017.48
2023-02-17T05:43:10.860Z,1017.55
2023-02-17T05:44:11.049Z,1017.50
2023-02-17T05:45:11.242Z,1017.56
2023-02-17T05:46:11.440Z,1017.52
2023-02-17T05:47:11.556Z,1017.54
2023-02-17T05:48:11.749Z,1017.50
2023-02-17T05:49:11.943Z,1017.49
2023-02-17T05:50:12.135Z,1017.47
2023-02-17T05:51:12.296Z,1017.45
2023-02-17T05:52:12.494Z,1017.46
2023-02-17T05:53:12.646Z,1017.48
2023-02-17T05:54:12.812Z,1017.51
2023-02-17T05:55:13.006Z,1017.50
2023-02-17T05:56:13.165Z,1017.46
2023-02-17T05:57:13.348Z,1017.47
2023-02-17T05:58:13.546Z,1017.39
2023-02-17T05:59:13.687Z,1017.42
2023-02-17T06:00:13.895Z,1017.43
2023-02-17T06:01:14.047Z,1017.45
2023-02-17T06:02:14.248Z,1017.45
2023-02-17T06:03:14.467Z,1017.48
2023-02-17T06:04:14.657Z,1017.40
2023-02-17T06:05:14.810Z,1017.42
2023-02-17T06:06:14.921Z,1017.47
2023-02-17T06:07:15.101Z,1017.45
2023-02-17T06:08:15.257Z,1017.45
2023-02-17T06:09:15.445Z,1017.41
2023-02-17T06:10:15.648Z,1017.46
2023-02-17T06:11:15.769Z,1017.45
2023-02-17T06:12:15.937Z,1017.45
2023-02-17T06:13:16.116Z,1017.46
2023-02-17T06:14:16.299Z,1017.47
2023-02-17T06:15:16.508Z,1017.46
2023-02-17T06:16:16.659Z,1017.44
2023-02-17T06:17:16.828Z,1017.37
2023-02-17T06:18:17.014Z,1017.32
2023-02-17T06:19:17.178Z,1017.26
2023-02-17T06:20:17.380Z,1017.23
2023-02-17T06:21:17.524Z,1017.23
2023-02-17T06:22:18.665Z,1017.28
2023-02-17T06:23:17.892Z,1017.24
2023-02-17T06:24:18.060Z,1017.25
2023-02-17T06:25:18.249Z,1017.23
2023-02-17T06:26:18.398Z,1017.23
2023-02-17T06:27:18.582Z,1017.20
2023-02-17T06:28:18.759Z,1017.20
2023-02-17T06:29:18.940Z,1017.18
2023-02-17T06:30:19.152Z,1017.17
2023-02-17T06:31:19.383Z,1017.19
2023-02-17T06:32:19.456Z,1017.19
2023-02-17T06:33:19.618Z,1017.17
2023-02-17T06:34:19.795Z,1017.16
2023-02-17T06:35:19.965Z,1017.18
2023-02-17T06:36:20.161Z,1017.17
2023-02-17T06:37:20.294Z,1017.13
2023-02-17T06:38:20.520Z,1017.14
2023-02-17T06:39:20.643Z,1017.13
2023-02-17T06:40:20.827Z,1017.09
2023-02-17T06:41:20.975Z,1017.05
2023-02-17T06:42:21.176Z,1017.06
2023-02-17T06:43:21.344Z,1017.06
2023-02-17T06:44:21.534Z,1017.08
2023-02-17T06:45:21.719Z,1017.11
2023-02-17T06:46:21.884Z,1017.11
2023-02-17T06:47:22.054Z,1017.10
2023-02-17T06:48:22.211Z,1017.07
2023-02-17T06:49:22.380Z,1017.05
2023-02-17T06:50:22.581Z,1017.01
2023-02-17T06:51:22.716Z,1016.97
2023-02-17T06:52:22.911Z,1017.03
2023-02-17T06:53:23.083Z,1017.05
2023-02-17T06:54:23.251Z,1017.06
2023-02-17T06:55:23.462Z,1017.06
2023-02-17T06:56:23.643Z,1017.07
2023-02-17T06:57:23.848Z,1017.08
2023-02-17T06:58:23.991Z,1017.07
2023-02-17T06:59:24.154Z,1017.07
2023-02-17T07:00:24.353Z,1017.12
2023-02-17T07:01:24.551Z,1017.14
2023-02-17T07:02:24.740Z,1017.14
2023-02-17T07:03:24.871Z,1017.12
2023-02-17T07:04:25.039Z,1017.14
2023-02-17T07:05:25.245Z,1017.08
2023-02-17T07:06:25.381Z,1017.14
2023-02-17T07:07:25.680Z,1017.05
2023-02-17T07:08:25.800Z,1017.05
2023-02-17T07:09:25.968Z,1017.01
2023-02-17T07:10:26.156Z,1017.03
2023-02-17T07:11:26.309Z,1017.08
2023-02-17T07:12:26.466Z,1017.04
2023-02-17T07:13:26.649Z,1017.01
2023-02-17T07:14:26.841Z,1016.98
2023-02-17T07:15:27.000Z,1016.95
2023-02-17T07:16:27.241Z,1016.96
2023-02-17T07:17:27.696Z,1017.00
2023-02-17T07:18:27.485Z,1016.94
2023-02-17T07:19:27.653Z,1016.97
2023-02-17T07:20:27.842Z,1017.00
2023-02-17T07:21:28.041Z,1016.94
2023-02-17T07:22:28.198Z,1016.98
2023-02-17T07:23:28.346Z,1017.00
2023-02-17T07:24:28.544Z,1016.98
2023-02-17T07:25:28.734Z,1017.03
2023-02-17T07:26:28.886Z,1017.02
2023-02-17T07:27:29.033Z,1017.03
2023-02-17T07:28:29.207Z,1017.05
2023-02-17T07:29:29.384Z,1016.99
2023-02-17T07:30:29.686Z,1017.00
2023-02-17T07:31:29.850Z,1016.97
2023-02-17T07:32:29.909Z,1016.96
2023-02-17T07:33:30.080Z,1016.91
2023-02-17T07:34:30.260Z,1016.87
2023-02-17T07:35:30.440Z,1016.85
2023-02-17T07:36:30.626Z,1016.85
2023-02-17T07:37:30.792Z,1016.84
2023-02-17T07:38:33.352Z,1016.80
2023-02-17T07:39:31.117Z,1016.83
2023-02-17T07:40:31.283Z,1016.74
2023-02-17T07:41:31.465Z,1016.77
2023-02-17T07:42:31.639Z,1016.76
2023-02-17T07:43:31.784Z,1016.76
2023-02-17T07:44:31.945Z,1016.76
2023-02-17T07:45:32.125Z,1016.71
2023-02-17T07:46:32.302Z,1016.67
2023-02-17T07:47:32.451Z,1016.63
2023-02-17T07:48:32.641Z,1016.69
2023-02-17T07:49:32.793Z,1016.65
2023-02-17T07:50:32.962Z,1016.67
2023-02-17T07:51:33.177Z,1016.70
2023-02-17T07:52:33.340Z,1016.72
2023-02-17T07:53:33.494Z,1016.71
2023-02-17T07:54:33.669Z,1016.71
2023-02-17T07:55:33.810Z,1016.67
2023-02-17T07:56:33.999Z,1016.68
2023-02-17T07:57:34.141Z,1016.67
2023-02-17T07:58:34.331Z,1016.64
2023-02-17T07:59:34.481Z,1016.69
2023-02-17T08:00:34.642Z,1016.66
2023-02-17T08:01:34.821Z,1016.68
2023-02-17T08:02:35.008Z,1016.67
2023-02-17T08:03:35.162Z,1016.64
2023-02-17T08:04:35.436Z,1016.67
2023-02-17T08:05:35.490Z,1016.64
2023-02-17T08:06:35.669Z,1016.62
2023-02-17T08:07:35.827Z,1016.64
2023-02-17T08:08:36.011Z,1016.65
2023-02-17T08:09:36.169Z,1016.64
2023-02-17T08:10:36.340Z,1016.63
2023-02-17T08:11:36.527Z,1016.65
2023-02-17T08:12:36.724Z,1016.65
2023-02-17T08:13:36.878Z,1016.65
2023-02-17T08:14:37.050Z,1016.64
2023-02-17T08:15:37.210Z,1016.59
2023-02-17T08:16:37.461Z,1016.57
2023-02-17T08:17:37.581Z,1016.62
2023-02-17T08:18:37.860Z,1016.59
2023-02-17T08:19:53.036Z,1016.57
2023-02-17T08:20:39.095Z,1016.54
2023-02-17T08:21:38.264Z,1016.56
2023-02-17T08:22:38.432Z,1016.56
2023-02-17T08:23:38.633Z,1016.54
2023-02-17T08:24:38.798Z,1016.56
2023-02-17T08:25:38.986Z,1016.53
2023-02-17T08:26:39.192Z,1016.51
2023-02-17T08:27:39.322Z,1016.55
2023-02-17T08:28:39.489Z,1016.52
2023-02-17T08:29:39.680Z,1016.50
2023-02-17T08:30:39.977Z,1016.51
2023-02-17T08:31:40.060Z,1016.51
2023-02-17T08:32:40.183Z,1016.48
2023-02-17T08:33:40.364Z,1016.50
2023-02-17T08:34:40.561Z,1016.57
2023-02-17T08:35:42.364Z,1016.51
2023-02-17T08:36:40.921Z,1016.51
2023-02-17T08:37:41.092Z,1016.54
2023-02-17T08:38:41.238Z,1016.56
2023-02-17T08:39:41.434Z,1016.54
2023-02-17T08:40:41.610Z,1016.56
2023-02-17T08:41:41.789Z,1016.52
2023-02-17T08:42:42.007Z,1016.53
2023-02-17T08:43:42.158Z,1016.50
2023-02-17T08:44:42.310Z,1016.48
2023-02-17T08:45:42.481Z,1016.48
2023-02-17T08:46:42.786Z,1016.48
2023-02-17T08:47:42.827Z,1016.48
2023-02-17T08:48:43.027Z,1016.49
2023-02-17T08:49:43.176Z,1016.51
2023-02-17T08:50:43.356Z,1016.50
2023-02-17T08:51:43.543Z,1016.43
2023-02-17T08:52:43.712Z,1016.41
2023-02-17T08:53:43.922Z,1016.37
2023-02-17T08:54:44.102Z,1016.34
2023-02-17T08:55:49.445Z,1016.33
2023-02-17T08:56:45.459Z,1016.33
2023-02-17T08:57:44.593Z,1016.27
2023-02-17T08:58:44.813Z,1016.27
2023-02-17T08:59:44.935Z,1016.23
2023-02-17T09:00:45.113Z,1016.14
2023-02-17T09:01:45.354Z,1016.14
2023-02-17T09:02:45.505Z,1016.11
2023-02-17T09:03:45.611Z,1016.08
2023-02-17T09:04:45.850Z,1016.02
2023-02-17T09:05:45.977Z,1016.01
2023-02-17T09:06:46.170Z,1016.00
2023-02-17T09:07:46.353Z,1016.01
2023-02-17T09:08:46.476Z,1016.00
2023-02-17T09:09:46.690Z,1015.97
2023-02-17T09:10:46.834Z,1015.96
2023-02-17T09:11:47.060Z,1015.93
2023-02-17T09:12:47.180Z,1015.96
2023-02-17T09:13:47.403Z,1015.91
2023-02-17T09:14:47.561Z,1015.93
2023-02-17T09:15:47.800Z,1015.87
2023-02-17T09:16:47.891Z,1015.87
2023-02-17T09:17:48.021Z,1015.85
2023-02-17T09:18:48.201Z,1015.81
2023-02-17T09:19:48.417Z,1015.76
2023-02-17T09:20:48.599Z,1015.77
2023-02-17T09:21:48.783Z,1015.72
2023-02-17T09:22:50.377Z,1015.64
2023-02-17T09:23:49.184Z,1015.60
2023-02-17T09:24:49.285Z,1015.57
2023-02-17T09:25:49.444Z,1015.55
2023-02-17T09:26:49.668Z,1015.55
2023-02-17T09:27:49.811Z,1015.53
2023-02-17T09:28:49.951Z,1015.52
2023-02-17T09:29:50.175Z,1015.56
2023-02-17T09:30:50.495Z,1015.55
2023-02-17T09:31:50.642Z,1015.51
2023-02-17T09:32:50.734Z,1015.50
2023-02-17T09:33:50.903Z,1015.48
2023-02-17T09:34:51.093Z,1015.42
2023-02-17T09:35:51.220Z,1015.42
2023-02-17T09:36:51.378Z,1015.42
2023-02-17T09:37:51.526Z,1015.42
2023-02-17T09:38:51.759Z,1015.37
2023-02-17T09:39:51.846Z,1015.35
2023-02-17T09:40:52.041Z,1015.34
2023-02-17T09:41:52.279Z,1015.33
2023-02-17T09:42:52.364Z,1015.26
2023-02-17T09:43:52.593Z,1015.30
2023-02-17T09:44:52.713Z,1015.25
2023-02-17T09:45:52.870Z,1015.25
2023-02-17T09:47:01.771Z,1015.22
2023-02-17T09:47:54.196Z,1015.17
2023-02-17T09:48:53.467Z,1015.14
2023-02-17T09:49:53.565Z,1015.13
2023-02-17T09:50:53.793Z,1015.13
2023-02-17T09:51:53.952Z,1015.15
2023-02-17T09:52:54.143Z,1015.14
2023-02-17T09:53:54.254Z,1015.14
2023-02-17T09:54:54.510Z,1015.07
2023-02-17T09:55:54.614Z,1015.11
2023-02-17T09:56:54.866Z,1015.06
2023-02-17T09:57:55.042Z,1015.03
2023-02-17T09:58:55.246Z,1015.04
2023-02-17T09:59:55.340Z,1014.98
2023-02-17T10:00:55.538Z,1014.96
2023-02-17T10:01:55.774Z,1014.96
2023-02-17T10:02:55.893Z,1014.92
2023-02-17T10:03:56.152Z,1014.88
2023-02-17T10:04:56.312Z,1014.89
2023-02-17T10:05:56.418Z,1014.84
2023-02-17T10:06:56.628Z,1014.86
2023-02-17T10:07:56.767Z,1014.97
2023-02-17T10:08:57.011Z,1014.94
2023-02-17T10:09:57.163Z,1014.85
2023-02-17T10:10:57.342Z,1014.89
2023-02-17T10:11:57.511Z,1014.91
2023-02-17T10:12:57.663Z,1014.87
2023-02-17T10:13:57.840Z,1014.84
2023-02-17T10:14:58.092Z,1014.80
2023-02-17T10:15:58.272Z,1014.70
2023-02-17T10:16:58.457Z,1014.75
2023-02-17T10:17:58.559Z,1014.77
2023-02-17T10:18:58.717Z,1014.80
2023-02-17T10:19:58.873Z,1014.78
2023-02-17T10:20:59.050Z,1014.81
2023-02-17T10:21:59.344Z,1014.76
2023-02-17T10:22:59.392Z,1014.74
2023-02-17T10:23:59.567Z,1014.75
2023-02-17T10:24:59.782Z,1014.72
2023-02-17T10:25:59.897Z,1014.62
2023-02-17T10:27:00.113Z,1014.64
2023-02-17T10:28:00.261Z,1014.61
2023-02-17T10:29:00.410Z,1014.67
2023-02-17T10:30:00.628Z,1014.62
2023-02-17T10:31:00.882Z,1014.62
2023-02-17T10:32:01.022Z,1014.59
2023-02-17T10:33:01.077Z,1014.57
2023-02-17T10:34:01.306Z,1014.61
2023-02-17T10:35:01.442Z,1014.58
2023-02-17T10:36:01.721Z,1014.47
2023-02-17T10:37:01.896Z,1014.51
2023-02-17T10:38:01.971Z,1014.49
2023-02-17T10:39:02.160Z,1014.44
2023-02-17T10:40:02.320Z,1014.44
2023-02-17T10:41:02.512Z,1014.49
2023-02-17T10:42:02.724Z,1014.45
2023-02-17T10:43:04.347Z,1014.43
2023-02-17T10:44:03.031Z,1014.33
2023-02-17T10:45:03.295Z,1014.36
2023-02-17T10:46:03.353Z,1014.38
2023-02-17T10:47:03.532Z,1014.31
2023-02-17T10:48:03.680Z,1014.31
2023-02-17T10:49:06.250Z,1014.23
2023-02-17T10:50:04.070Z,1014.22
2023-02-17T10:51:04.220Z,1014.22
2023-02-17T10:52:04.444Z,1014.23
2023-02-17T10:53:04.555Z,1014.28
2023-02-17T10:54:04.745Z,1014.21
2023-02-17T10:55:20.973Z,1014.24
2023-02-17T10:56:06.397Z,1014.22
2023-02-17T10:57:05.242Z,1014.13
2023-02-17T10:58:05.409Z,1014.12
2023-02-17T10:59:05.606Z,1014.12
2023-02-17T11:00:05.751Z,1014.03
2023-02-17T11:01:06.024Z,1013.98
2023-02-17T11:02:06.131Z,1013.90
2023-02-17T11:03:06.282Z,1013.89
2023-02-17T11:04:06.542Z,1013.83
2023-02-17T11:05:06.624Z,1013.85
2023-02-17T11:06:07.199Z,1013.82
2023-02-17T11:07:07.011Z,1013.85
2023-02-17T11:08:07.160Z,1013.72
2023-02-17T11:09:07.305Z,1013.71
2023-02-17T11:10:07.505Z,1013.74
2023-02-17T11:11:07.666Z,1013.70
2023-02-17T11:12:07.877Z,1013.65
2023-02-17T11:13:08.039Z,1013.61
2023-02-17T11:14:08.211Z,1013.56
2023-02-17T11:15:08.364Z,1013.53
2023-02-17T11:16:08.882Z,1013.46
2023-02-17T11:17:08.712Z,1013.47
2023-02-17T11:18:08.866Z,1013.45
2023-02-17T11:19:09.095Z,1013.45
2023-02-17T11:20:09.216Z,1013.41
2023-02-17T11:21:09.383Z,1013.41
2023-02-17T11:22:11.483Z,1013.38
2023-02-17T11:23:09.724Z,1013.38
2023-02-17T11:24:09.910Z,1013.37
2023-02-17T11:25:10.106Z,1013.41
2023-02-17T11:26:10.322Z,1013.34
2023-02-17T11:27:10.488Z,1013.29
2023-02-17T11:28:10.676Z,1013.28
2023-02-17T11:29:10.814Z,1013.23
2023-02-17T11:30:11.094Z,1013.20
2023-02-17T11:31:11.237Z,1013.13
2023-02-17T11:32:11.471Z,1013.11
2023-02-17T11:33:11.547Z,1013.04
2023-02-17T11:34:11.734Z,1013.03
2023-02-17T11:35:11.941Z,1013.10
2023-02-17T11:36:12.129Z,1013.14
2023-02-17T11:37:12.310Z,1013.11
2023-02-17T11:38:12.468Z,1013.12
2023-02-17T11:39:12.639Z,1013.08
2023-02-17T11:40:12.825Z,1013.10
2023-02-17T11:41:13.038Z,1012.97
2023-02-17T11:42:13.217Z,1012.97
2023-02-17T11:43:13.358Z,1012.92
2023-02-17T11:44:13.548Z,1012.91
2023-02-17T11:45:13.748Z,1012.92
2023-02-17T11:46:13.977Z,1012.91
2023-02-17T11:47:14.129Z,1012.81
2023-02-17T11:48:14.284Z,1012.74
2023-02-17T11:49:14.419Z,1012.70
2023-02-17T11:50:14.610Z,1012.69
2023-02-17T11:51:14.805Z,1012.74
2023-02-17T11:52:14.959Z,1012.59
2023-02-17T11:53:15.142Z,1012.60
2023-02-17T11:54:15.331Z,1012.61
2023-02-17T11:55:15.490Z,1012.54
2023-02-17T11:56:15.717Z,1012.44
2023-02-17T11:57:15.857Z,1012.39
2023-02-17T11:58:16.017Z,1012.39
2023-02-17T11:59:16.204Z,1012.37
2023-02-17T12:00:16.443Z,1012.35
2023-02-17T12:01:16.546Z,1012.32
2023-02-17T12:02:16.755Z,1012.36
2023-02-17T12:03:17.063Z,1012.29
2023-02-17T12:04:17.075Z,1012.38
2023-02-17T12:05:17.246Z,1012.35
2023-02-17T12:06:17.416Z,1012.35
2023-02-17T12:07:17.618Z,1012.32